GMMJ weather

El Jadida Airport
El Jadida, El Jadida Province, Morocco

Public forecast

Using degrees Celsius for public forecast. Weather courtesy of forecast.io.

METAR (pilot weather report)

Closest report is Anfa Airport, 47.0 nm (87.0 km) ENE. Retrieved 2019/05/19 12:00 UTC (28 minutes ago):

GMMC 191200Z 04015KT 9999 FEW016 21/11 Q1017

TAF (pilot weather forecast)

Closest forecast is Mohammed V International Airport, 47.2 nm (87.4 km) E. Retrieved 2019/05/19 12:00 UTC (28 minutes ago):

TAF GMMN 191100Z 1912/2018 02012KT 9999 FEW020 BECMG 1923/2003 10006KT BKN013 BECMG 2009/2013 34013KT CAVOK